Time;durP1;ratioP1;P1;durP2;ratioP2;P2;SDS_P1;SDS_P2;PMS_P1;PMS_P2;Temp;Humidity;BMP_temperature;BMP_pressure;BME280_temperature;BME280_humidity;BME280_pressure;Samples;Min_cycle;Max_cycle;Signal;HPM_P1;HPM_P2
2022/08/10 00:02:38;;;;;;;2.50;1.97;;;;;;;;;;5056631;28;20414;-77
2022/08/10 00:05:04;;;;;;;7.20;2.50;;;;;;;;;;5056566;28;20482;-75
2022/08/10 00:07:30;;;;;;;5.17;2.00;;;;;;;;;;5056527;28;20480;-75
2022/08/10 00:09:56;;;;;;;5.73;2.70;;;;;;;;;;5056137;28;20410;-75
2022/08/10 00:12:22;;;;;;;3.93;2.97;;;;;;;;;;5056536;28;20408;-75
2022/08/10 00:14:48;;;;;;;4.70;2.20;;;;;;;;;;5056431;28;20450;-75
2022/08/10 00:17:14;;;;;;;3.27;2.40;;;;;;;;;;5056231;28;20445;-75
2022/08/10 00:19:40;;;;;;;4.07;2.47;;;;;;;;;;5056092;28;20412;-76
2022/08/10 00:22:06;;;;;;;4.27;2.60;;;;;;;;;;5056504;28;20881;-76
2022/08/10 00:24:32;;;;;;;3.07;2.30;;;;;;;;;;5056452;28;20419;-76
2022/08/10 00:26:58;;;;;;;3.03;2.37;;;;;;;;;;5056313;28;20413;-76
2022/08/10 00:29:24;;;;;;;4.60;2.50;;;;;;;;;;5055048;28;20441;-76
2022/08/10 00:31:50;;;;;;;3.13;2.33;;;;;;;;;;5056120;28;20862;-75
2022/08/10 00:34:16;;;;;;;5.83;2.47;;;;;;;;;;5056204;28;20443;-76
2022/08/10 00:36:42;;;;;;;2.77;2.40;;;;;;;;;;5056239;28;20518;-75
2022/08/10 00:39:08;;;;;;;3.10;2.30;;;;;;;;;;5056164;28;20471;-75
2022/08/10 00:41:34;;;;;;;9.23;2.67;;;;;;;;;;5055818;28;20443;-76
2022/08/10 00:44:00;;;;;;;5.27;2.63;;;;;;;;;;5056175;28;20406;-76
2022/08/10 00:46:26;;;;;;;2.93;2.33;;;;;;;;;;5056072;28;20463;-76
2022/08/10 00:48:52;;;;;;;2.40;2.20;;;;;;;;;;5055989;28;20754;-75
2022/08/10 00:51:30;;;;;;;3.27;2.30;;;;;;;;;;5161603;22;20494;-75
2022/08/10 00:53:56;;;;;;;2.73;2.23;;;;;;;;;;5055849;28;20417;-75
2022/08/10 00:56:22;;;;;;;4.00;2.27;;;;;;;;;;5055709;28;20417;-76
2022/08/10 00:58:48;;;;;;;2.87;2.60;;;;;;;;;;5055718;28;20422;-75
2022/08/10 01:01:14;;;;;;;3.97;2.40;;;;;;;;;;5055168;28;20430;-75
2022/08/10 01:03:40;;;;;;;2.50;2.30;;;;;;;;;;5055648;28;20428;-75
2022/08/10 01:06:12;;;;;;;3.00;2.10;;;;;;;;;;5055481;28;20956;-75
2022/08/10 01:08:49;;;;;;;3.43;2.03;;;;;;;;;;5055583;28;20827;-75
2022/08/10 01:11:18;;;;;;;2.90;2.20;;;;;;;;;;5054989;28;20485;-75
2022/08/10 01:13:48;;;;;;;3.53;2.80;;;;;;;;;;5055415;28;20450;-75
2022/08/10 01:16:20;;;;;;;5.80;2.47;;;;;;;;;;5055812;28;20426;-76
2022/08/10 01:18:51;;;;;;;3.63;2.73;;;;;;;;;;5055335;28;20424;-76
2022/08/10 01:21:17;;;;;;;4.77;2.60;;;;;;;;;;5055042;28;20407;-76
2022/08/10 01:23:52;;;;;;;2.90;2.23;;;;;;;;;;5055329;28;20417;-76
2022/08/10 01:26:33;;;;;;;4.37;2.27;;;;;;;;;;5055242;28;20464;-77
2022/08/10 01:29:20;;;;;;;3.03;2.40;;;;;;;;;;5055414;28;20412;-76
2022/08/10 01:31:51;;;;;;;6.70;2.67;;;;;;;;;;5024354;28;20532;-75
2022/08/10 01:34:20;;;;;;;7.87;2.73;;;;;;;;;;5055056;28;20829;-76
2022/08/10 01:36:52;;;;;;;5.53;2.60;;;;;;;;;;5055037;28;20414;-76
2022/08/10 01:39:26;;;;;;;4.37;2.77;;;;;;;;;;5054933;28;20409;-75
2022/08/10 01:41:56;;;;;;;2.80;2.60;;;;;;;;;;5054676;28;20432;-76
2022/08/10 01:44:40;;;;;;;3.10;2.47;;;;;;;;;;5053830;28;20391;-75
2022/08/10 01:49:59;;;;;;;6.20;2.90;;;;;;;;;;5033344;28;20414;-76
2022/08/10 01:52:25;;;;;;;2.67;2.47;;;;;;;;;;5054824;28;20504;-76
2022/08/10 01:54:53;;;;;;;6.50;2.87;;;;;;;;;;5053519;28;20433;-76
2022/08/10 01:57:20;;;;;;;3.93;3.10;;;;;;;;;;5054670;28;20447;-81
2022/08/10 01:59:46;;;;;;;2.97;2.67;;;;;;;;;;5054214;28;20515;-76
2022/08/10 02:02:14;;;;;;;5.67;2.50;;;;;;;;;;5054468;28;20427;-77
2022/08/10 02:04:42;;;;;;;7.20;3.23;;;;;;;;;;5054425;28;20502;-77
2022/08/10 02:07:11;;;;;;;3.40;2.77;;;;;;;;;;5054511;28;20506;-77
2022/08/10 02:09:42;;;;;;;3.57;2.80;;;;;;;;;;5053273;28;20474;-76
2022/08/10 02:12:13;;;;;;;5.83;3.07;;;;;;;;;;5054235;28;20394;-78
2022/08/10 02:14:41;;;;;;;4.53;3.60;;;;;;;;;;5054266;28;20396;-76
2022/08/10 02:17:09;;;;;;;3.97;2.70;;;;;;;;;;5054141;28;20424;-76
2022/08/10 02:19:35;;;;;;;4.00;2.97;;;;;;;;;;5053904;28;20436;-76
2022/08/10 02:22:02;;;;;;;4.63;3.23;;;;;;;;;;5054097;28;20487;-76
2022/08/10 02:24:28;;;;;;;4.53;2.90;;;;;;;;;;5054143;28;20822;-76
2022/08/10 02:26:54;;;;;;;9.07;3.17;;;;;;;;;;5053865;28;20444;-75
2022/08/10 02:29:21;;;;;;;3.13;2.70;;;;;;;;;;5053891;28;20462;-75
2022/08/10 02:31:50;;;;;;;3.37;2.90;;;;;;;;;;5053377;28;20428;-74
2022/08/10 02:34:17;;;;;;;5.43;3.83;;;;;;;;;;5053662;28;20454;-74
2022/08/10 02:36:44;;;;;;;3.83;3.23;;;;;;;;;;5053712;28;20413;-75
2022/08/10 02:39:11;;;;;;;5.10;3.50;;;;;;;;;;5053775;28;20420;-75
2022/08/10 02:41:42;;;;;;;3.60;3.30;;;;;;;;;;5053165;28;20404;-75
2022/08/10 02:44:22;;;;;;;6.97;3.23;;;;;;;;;;5053672;28;20783;-74
2022/08/10 02:46:50;;;;;;;4.07;3.00;;;;;;;;;;5053475;28;20465;-75
2022/08/10 02:49:21;;;;;;;3.27;2.97;;;;;;;;;;5053479;28;20406;-77
2022/08/10 02:52:04;;;;;;;5.13;3.23;;;;;;;;;;5052783;28;20450;-75
2022/08/10 02:54:32;;;;;;;4.77;3.20;;;;;;;;;;5053453;28;20417;-75
2022/08/10 02:57:02;;;;;;;8.73;3.33;;;;;;;;;;5053621;28;20398;-75
2022/08/10 02:59:30;;;;;;;3.47;3.17;;;;;;;;;;5053334;28;20408;-75
2022/08/10 03:01:58;;;;;;;6.80;3.20;;;;;;;;;;5053059;28;20429;-75
2022/08/10 03:04:34;;;;;;;3.77;3.37;;;;;;;;;;5053125;28;20415;-75
2022/08/10 03:07:02;;;;;;;7.30;3.47;;;;;;;;;;5053471;28;20411;-75
2022/08/10 03:09:30;;;;;;;4.50;3.40;;;;;;;;;;5053141;28;20397;-75
2022/08/10 03:11:56;;;;;;;6.30;3.87;;;;;;;;;;5052888;28;20383;-75
2022/08/10 03:14:23;;;;;;;5.87;3.07;;;;;;;;;;5052877;28;20461;-75
2022/08/10 03:16:50;;;;;;;4.30;3.40;;;;;;;;;;5053112;28;20379;-75
2022/08/10 03:19:19;;;;;;;3.50;3.13;;;;;;;;;;5053251;28;20414;-75
2022/08/10 03:21:45;;;;;;;3.87;3.47;;;;;;;;;;5052768;28;20429;-76
2022/08/10 03:24:11;;;;;;;7.07;3.67;;;;;;;;;;5052870;28;20864;-75
2022/08/10 03:26:37;;;;;;;3.07;2.73;;;;;;;;;;5052798;28;20468;-75
2022/08/10 03:29:05;;;;;;;5.20;4.07;;;;;;;;;;5052936;28;20404;-75
2022/08/10 03:31:32;;;;;;;5.80;3.70;;;;;;;;;;5052733;28;20951;-76
2022/08/10 03:34:00;;;;;;;11.30;3.50;;;;;;;;;;5053265;28;20430;-76
2022/08/10 03:36:26;;;;;;;3.20;2.90;;;;;;;;;;5053024;28;20388;-76
2022/08/10 03:38:52;;;;;;;5.13;3.97;;;;;;;;;;5052900;28;20755;-76
2022/08/10 03:41:19;;;;;;;7.73;3.70;;;;;;;;;;5052676;28;20551;-76
2022/08/10 03:43:47;;;;;;;10.63;3.70;;;;;;;;;;5052893;28;20379;-76
2022/08/10 03:46:13;;;;;;;4.67;3.70;;;;;;;;;;5052770;28;20438;-76
2022/08/10 03:48:39;;;;;;;5.50;3.50;;;;;;;;;;5052706;28;20384;-76
2022/08/10 03:51:06;;;;;;;6.60;3.57;;;;;;;;;;5059406;22;20466;-76
2022/08/10 03:53:34;;;;;;;5.20;3.60;;;;;;;;;;5052653;28;20774;-76
2022/08/10 03:56:00;;;;;;;4.77;3.17;;;;;;;;;;5052882;28;20430;-76
2022/08/10 03:58:26;;;;;;;5.80;3.40;;;;;;;;;;5052646;28;20897;-76
2022/08/10 04:00:52;;;;;;;4.50;3.73;;;;;;;;;;5052314;28;20507;-76
2022/08/10 04:03:18;;;;;;;4.10;3.70;;;;;;;;;;5052821;28;20391;-76
2022/08/10 04:05:44;;;;;;;4.17;3.60;;;;;;;;;;5052535;28;20479;-76
2022/08/10 04:08:10;;;;;;;4.27;3.23;;;;;;;;;;5052734;28;20474;-76
2022/08/10 04:10:36;;;;;;;5.07;3.70;;;;;;;;;;5052207;28;20931;-76
2022/08/10 04:13:02;;;;;;;5.60;4.10;;;;;;;;;;5052614;28;20471;-76
2022/08/10 04:15:28;;;;;;;5.23;4.00;;;;;;;;;;5052559;28;20417;-76
2022/08/10 04:17:54;;;;;;;4.27;3.87;;;;;;;;;;5052571;28;20387;-76
2022/08/10 04:20:27;;;;;;;6.90;4.33;;;;;;;;;;5052289;28;20403;-76
2022/08/10 04:23:13;;;;;;;4.40;3.93;;;;;;;;;;5052446;28;20404;-76
2022/08/10 04:25:40;;;;;;;4.60;3.80;;;;;;;;;;5052293;28;20547;-76
2022/08/10 04:28:07;;;;;;;4.30;3.90;;;;;;;;;;5052457;28;20939;-76
2022/08/10 04:30:56;;;;;;;5.83;4.60;;;;;;;;;;5100975;22;20553;-76
2022/08/10 04:33:43;;;;;;;7.70;4.67;;;;;;;;;;5055323;28;20413;-76
2022/08/10 04:36:37;;;;;;;6.70;4.43;;;;;;;;;;5055851;28;20395;-76
2022/08/10 04:39:14;;;;;;;5.00;4.50;;;;;;;;;;5055789;28;20387;-76
2022/08/10 04:41:48;;;;;;;5.00;4.27;;;;;;;;;;5055343;28;20420;-76
2022/08/10 04:47:17;;;;;;;7.23;3.90;;;;;;;;;;5050189;28;20395;-76
2022/08/10 04:49:48;;;;;;;4.13;3.53;;;;;;;;;;5055508;28;20413;-76
2022/08/10 04:52:35;;;;;;;6.03;4.40;;;;;;;;;;5055630;28;20438;-76
2022/08/10 04:55:11;;;;;;;7.77;4.37;;;;;;;;;;5055648;28;20450;-76
2022/08/10 04:57:37;;;;;;;6.83;4.77;;;;;;;;;;5054397;28;20903;-75
2022/08/10 05:00:05;;;;;;;6.30;4.50;;;;;;;;;;5055291;28;20414;-75
2022/08/10 05:02:31;;;;;;;6.40;5.00;;;;;;;;;;5035656;28;20777;-75
2022/08/10 05:04:57;;;;;;;7.40;4.50;;;;;;;;;;5035423;28;20446;-75
2022/08/10 05:07:23;;;;;;;11.03;4.50;;;;;;;;;;5035400;28;20412;-75
2022/08/10 05:09:50;;;;;;;5.40;4.30;;;;;;;;;;5033915;28;20828;-75
2022/08/10 05:12:16;;;;;;;4.87;4.30;;;;;;;;;;5035349;28;20449;-75
2022/08/10 05:14:42;;;;;;;5.40;4.57;;;;;;;;;;5035315;28;20441;-75
2022/08/10 05:17:08;;;;;;;6.80;4.23;;;;;;;;;;5035273;28;20384;-75
2022/08/10 05:19:34;;;;;;;4.57;4.17;;;;;;;;;;5034894;28;20392;-76
2022/08/10 05:22:01;;;;;;;6.50;4.53;;;;;;;;;;5035353;28;20408;-75
2022/08/10 05:24:27;;;;;;;5.03;4.17;;;;;;;;;;5035278;28;20421;-75
2022/08/10 05:26:52;;;;;;;6.77;4.90;;;;;;;;;;5035081;28;20432;-76
2022/08/10 05:29:19;;;;;;;6.27;4.90;;;;;;;;;;5035096;28;20759;-75
2022/08/10 05:31:45;;;;;;;5.57;4.87;;;;;;;;;;5034594;28;20449;-75
2022/08/10 05:34:11;;;;;;;13.10;5.00;;;;;;;;;;5034983;28;21005;-75
2022/08/10 05:36:37;;;;;;;6.83;5.20;;;;;;;;;;5033714;28;20446;-75
2022/08/10 05:39:03;;;;;;;7.87;5.73;;;;;;;;;;5034871;28;20421;-75
2022/08/10 05:41:30;;;;;;;7.30;5.27;;;;;;;;;;5034459;28;20487;-75
2022/08/10 05:43:56;;;;;;;7.30;4.93;;;;;;;;;;5033863;28;20482;-75
2022/08/10 05:46:22;;;;;;;6.27;5.60;;;;;;;;;;5034791;28;20511;-75
2022/08/10 05:48:48;;;;;;;6.63;5.87;;;;;;;;;;5034733;28;20384;-75
2022/08/10 05:51:15;;;;;;;7.07;5.50;;;;;;;;;;5034276;28;20487;-75
2022/08/10 05:53:41;;;;;;;11.83;6.30;;;;;;;;;;5034537;28;20452;-75
2022/08/10 05:56:08;;;;;;;6.17;5.57;;;;;;;;;;5034645;28;20428;-75
2022/08/10 05:58:37;;;;;;;6.47;5.63;;;;;;;;;;5034638;28;20969;-75
2022/08/10 06:01:06;;;;;;;8.37;5.93;;;;;;;;;;5034121;28;20795;-75
2022/08/10 06:03:37;;;;;;;6.90;5.80;;;;;;;;;;5034378;28;20406;-75
2022/08/10 06:06:03;;;;;;;8.57;6.20;;;;;;;;;;5034267;28;20549;-75
2022/08/10 06:08:33;;;;;;;9.77;6.00;;;;;;;;;;5034379;28;20381;-75
2022/08/10 06:11:01;;;;;;;6.77;6.10;;;;;;;;;;5034012;28;20427;-75
2022/08/10 06:16:12;;;;;;;7.20;5.70;;;;;;;;;;5034545;28;20501;-74
2022/08/10 06:18:39;;;;;;;13.20;6.10;;;;;;;;;;5034219;28;20408;-75
2022/08/10 06:21:08;;;;;;;9.57;5.90;;;;;;;;;;5033949;28;20408;-75
2022/08/10 06:23:34;;;;;;;7.43;6.50;;;;;;;;;;5034145;28;20411;-75
2022/08/10 06:26:00;;;;;;;6.33;5.53;;;;;;;;;;5033988;28;20429;-75
2022/08/10 06:28:28;;;;;;;11.37;6.37;;;;;;;;;;5034209;28;20782;-75
2022/08/10 06:30:54;;;;;;;7.63;5.73;;;;;;;;;;5033553;28;20438;-75
2022/08/10 06:33:21;;;;;;;7.43;5.60;;;;;;;;;;5034134;28;20388;-75
2022/08/10 06:35:49;;;;;;;7.30;5.10;;;;;;;;;;5033821;28;20404;-74
2022/08/10 06:38:16;;;;;;;9.57;5.27;;;;;;;;;;5035856;28;21013;-75
2022/08/10 06:40:43;;;;;;;7.83;5.23;;;;;;;;;;5039841;28;20416;-75
2022/08/10 06:43:10;;;;;;;6.37;4.70;;;;;;;;;;5042126;28;20416;-75
2022/08/10 06:45:38;;;;;;;6.93;4.60;;;;;;;;;;5043688;28;20492;-75
2022/08/10 06:48:07;;;;;;;5.23;4.77;;;;;;;;;;5038860;28;20385;-75
2022/08/10 06:50:48;;;;;;;7.50;4.83;;;;;;;;;;5045497;28;20820;-75
2022/08/10 06:53:17;;;;;;;6.73;4.67;;;;;;;;;;5053515;28;20407;-74
2022/08/10 06:55:45;;;;;;;6.17;4.30;;;;;;;;;;5053201;28;20457;-75
2022/08/10 06:58:13;;;;;;;4.77;3.83;;;;;;;;;;5053610;28;20780;-75
2022/08/10 07:00:40;;;;;;;6.60;5.17;;;;;;;;;;5047121;28;20493;-75
2022/08/10 07:03:09;;;;;;;5.50;4.70;;;;;;;;;;5042518;28;20415;-75
2022/08/10 07:05:37;;;;;;;10.17;5.17;;;;;;;;;;5041237;28;20808;-76
2022/08/10 07:08:03;;;;;;;8.93;5.03;;;;;;;;;;5040117;28;20426;-74
2022/08/10 07:10:30;;;;;;;7.00;5.10;;;;;;;;;;5039162;28;20425;-75
2022/08/10 07:12:57;;;;;;;5.87;4.30;;;;;;;;;;5043490;28;20892;-75
2022/08/10 07:15:24;;;;;;;6.40;4.43;;;;;;;;;;5044433;28;20423;-75
2022/08/10 07:17:51;;;;;;;4.90;3.70;;;;;;;;;;5044415;28;20503;-75
2022/08/10 07:20:18;;;;;;;5.47;3.20;;;;;;;;;;5049739;28;20524;-73
2022/08/10 07:22:46;;;;;;;6.57;3.40;;;;;;;;;;5053402;28;20491;-75
2022/08/10 07:25:14;;;;;;;11.80;2.83;;;;;;;;;;5053182;28;20498;-75
2022/08/10 07:27:41;;;;;;;8.20;2.73;;;;;;;;;;5053250;28;20787;-74
2022/08/10 07:30:07;;;;;;;2.93;2.60;;;;;;;;;;5052713;28;20842;-75
2022/08/10 07:32:34;;;;;;;5.57;2.50;;;;;;;;;;5053017;28;20432;-75
2022/08/10 07:35:00;;;;;;;5.13;3.20;;;;;;;;;;5053024;28;20452;-75
2022/08/10 07:37:28;;;;;;;4.53;2.93;;;;;;;;;;5053280;28;20412;-75
2022/08/10 07:39:55;;;;;;;5.27;2.87;;;;;;;;;;5052792;28;20971;-75
2022/08/10 07:42:22;;;;;;;4.53;3.10;;;;;;;;;;5053090;28;20456;-75
2022/08/10 07:44:51;;;;;;;7.40;3.23;;;;;;;;;;5052894;28;20428;-74
2022/08/10 07:47:23;;;;;;;5.97;3.20;;;;;;;;;;5052999;28;20412;-75
2022/08/10 07:49:51;;;;;;;3.67;2.70;;;;;;;;;;5052276;28;20409;-75
2022/08/10 07:52:17;;;;;;;3.40;2.93;;;;;;;;;;5052961;28;20409;-75
2022/08/10 07:54:45;;;;;;;3.97;2.47;;;;;;;;;;5052694;28;20503;-75
2022/08/10 07:57:17;;;;;;;5.83;3.50;;;;;;;;;;5052894;28;20409;-74
2022/08/10 07:59:44;;;;;;;2.90;2.70;;;;;;;;;;5052590;28;20439;-75
2022/08/10 08:02:28;;;;;;;6.50;2.67;;;;;;;;;;5052662;28;20404;-75
2022/08/10 08:04:56;;;;;;;8.23;3.30;;;;;;;;;;5052798;28;20404;-75
2022/08/10 08:07:22;;;;;;;3.20;2.87;;;;;;;;;;5040328;28;20413;-74
2022/08/10 08:09:49;;;;;;;3.30;2.87;;;;;;;;;;5036424;28;20413;-75
2022/08/10 08:12:16;;;;;;;3.60;3.20;;;;;;;;;;5036452;28;20405;-76
2022/08/10 08:14:43;;;;;;;4.50;2.93;;;;;;;;;;5036410;28;20873;-75
2022/08/10 08:17:10;;;;;;;4.67;2.67;;;;;;;;;;5036492;28;20768;-77
2022/08/10 08:19:36;;;;;;;5.53;3.53;;;;;;;;;;5035882;28;20433;-77
2022/08/10 08:22:04;;;;;;;5.77;2.97;;;;;;;;;;5036277;28;20425;-76
2022/08/10 08:24:32;;;;;;;7.00;2.50;;;;;;;;;;5035034;28;20440;-79
2022/08/10 08:26:58;;;;;;;4.93;2.87;;;;;;;;;;5036166;28;20457;-78
2022/08/10 08:29:25;;;;;;;4.13;2.70;;;;;;;;;;5036459;28;20516;-78
2022/08/10 08:31:52;;;;;;;9.90;3.27;;;;;;;;;;5035844;28;20444;-77
2022/08/10 08:34:19;;;;;;;4.27;2.63;;;;;;;;;;5036305;28;20847;-77
2022/08/10 08:36:45;;;;;;;6.83;3.33;;;;;;;;;;5036199;28;20765;-78
2022/08/10 08:39:11;;;;;;;5.17;2.67;;;;;;;;;;5036221;28;20417;-77
2022/08/10 08:41:56;;;;;;;3.90;2.67;;;;;;;;;;5039203;28;20438;-77
2022/08/10 08:44:41;;;;;;;8.93;2.33;;;;;;;;;;5042675;28;20414;-77
2022/08/10 08:47:12;;;;;;;4.13;2.50;;;;;;;;;;5041808;28;20982;-77
2022/08/10 08:49:44;;;;;;;2.73;2.53;;;;;;;;;;5042553;28;20485;-76
2022/08/10 08:52:10;;;;;;;4.50;2.80;;;;;;;;;;5044432;28;20428;-76
2022/08/10 08:54:59;;;;;;;4.03;2.83;;;;;;;;;;5043390;28;20409;-77
2022/08/10 08:57:36;;;;;;;4.83;2.53;;;;;;;;;;5045602;28;20408;-74
2022/08/10 09:00:17;;;;;;;4.07;2.37;;;;;;;;;;5045166;28;20424;-74
2022/08/10 09:03:01;;;;;;;3.80;2.90;;;;;;;;;;5044145;28;20396;-74
2022/08/10 09:05:40;;;;;;;10.43;3.23;;;;;;;;;;5045780;28;20864;-74
2022/08/10 09:08:22;;;;;;;6.80;2.93;;;;;;;;;;5043543;28;20409;-73
2022/08/10 09:11:14;;;;;;;3.53;2.63;;;;;;;;;;5117031;22;20487;-74
2022/08/10 09:14:01;;;;;;;5.80;3.40;;;;;;;;;;5055294;28;20435;-75
2022/08/10 09:16:28;;;;;;;2.70;2.20;;;;;;;;;;5053877;28;20416;-76
2022/08/10 09:19:04;;;;;;;3.10;2.70;;;;;;;;;;5054924;28;20411;-74
2022/08/10 09:21:49;;;;;;;3.97;2.70;;;;;;;;;;5054848;28;20427;-74
2022/08/10 09:24:19;;;;;;;5.40;2.67;;;;;;;;;;5055242;28;20499;-74
2022/08/10 09:26:51;;;;;;;3.90;2.60;;;;;;;;;;5054936;28;20482;-74
2022/08/10 09:29:28;;;;;;;6.30;2.80;;;;;;;;;;5055002;28;20414;-75
2022/08/10 09:32:08;;;;;;;3.63;2.30;;;;;;;;;;5054728;28;20451;-75
2022/08/10 09:34:54;;;;;;;6.57;2.47;;;;;;;;;;5055059;28;20534;-74
2022/08/10 09:37:24;;;;;;;5.57;2.47;;;;;;;;;;5054731;28;20481;-75
2022/08/10 09:39:55;;;;;;;2.33;2.13;;;;;;;;;;5054358;28;20416;-74
2022/08/10 09:42:33;;;;;;;2.90;2.33;;;;;;;;;;5054964;28;20420;-74
2022/08/10 09:45:03;;;;;;;2.80;2.60;;;;;;;;;;5054907;28;20457;-74
2022/08/10 09:47:38;;;;;;;2.40;2.20;;;;;;;;;;5054919;28;20404;-74
2022/08/10 09:50:22;;;;;;;2.60;2.40;;;;;;;;;;5054182;28;20424;-74
2022/08/10 09:53:07;;;;;;;3.53;2.67;;;;;;;;;;5054487;28;20419;-74
2022/08/10 09:55:51;;;;;;;3.00;2.33;;;;;;;;;;5054649;28;20403;-76
2022/08/10 09:58:17;;;;;;;3.30;2.50;;;;;;;;;;5054644;28;20407;-75
2022/08/10 10:00:46;;;;;;;4.37;2.60;;;;;;;;;;5054077;28;20838;-75
2022/08/10 10:03:45;;;;;;;3.73;2.60;;;;;;;;;;5054273;28;20404;-75
2022/08/10 10:06:21;;;;;;;2.83;2.57;;;;;;;;;;5020907;28;21026;-73
2022/08/10 10:08:59;;;;;;;3.90;2.70;;;;;;;;;;5054359;28;20416;-75
2022/08/10 10:11:28;;;;;;;5.50;2.37;;;;;;;;;;5053833;28;20456;-75
2022/08/10 10:14:20;;;;;;;4.73;2.33;;;;;;;;;;5054067;28;20435;-75
2022/08/10 10:17:02;;;;;;;4.70;2.33;;;;;;;;;;5030957;28;20422;-75
2022/08/10 10:19:46;;;;;;;4.00;2.90;;;;;;;;;;5053887;28;20412;-75
2022/08/10 10:22:24;;;;;;;7.60;2.13;;;;;;;;;;5054312;28;20776;-76
2022/08/10 10:24:58;;;;;;;5.33;2.57;;;;;;;;;;5054109;28;20792;-75
2022/08/10 10:27:39;;;;;;;3.50;2.80;;;;;;;;;;5053933;28;20403;-74
2022/08/10 10:30:06;;;;;;;2.87;2.27;;;;;;;;;;5053176;28;20431;-74
2022/08/10 10:32:44;;;;;;;8.70;2.63;;;;;;;;;;5054127;28;20400;-74
2022/08/10 10:35:16;;;;;;;4.07;2.40;;;;;;;;;;5054062;28;20892;-76
2022/08/10 10:37:44;;;;;;;3.73;2.40;;;;;;;;;;5053952;28;20438;-75
2022/08/10 10:40:12;;;;;;;8.67;2.60;;;;;;;;;;5052359;28;20448;-74
2022/08/10 10:42:45;;;;;;;4.00;2.63;;;;;;;;;;5053815;28;20460;-75
2022/08/10 10:45:29;;;;;;;6.53;2.50;;;;;;;;;;5053635;28;20465;-74
2022/08/10 10:48:07;;;;;;;3.60;2.60;;;;;;;;;;5053486;28;20983;-74
2022/08/10 10:50:52;;;;;;;4.90;2.57;;;;;;;;;;5053041;28;20420;-75
2022/08/10 10:53:35;;;;;;;3.20;2.67;;;;;;;;;;5053556;28;20420;-74
2022/08/10 10:56:19;;;;;;;4.77;2.40;;;;;;;;;;5053787;28;20416;-76
2022/08/10 10:58:58;;;;;;;3.57;2.03;;;;;;;;;;5053394;28;20426;-76
2022/08/10 11:01:36;;;;;;;7.77;3.17;;;;;;;;;;5053081;28;20513;-73
2022/08/10 11:04:08;;;;;;;2.37;2.17;;;;;;;;;;5053413;28;20408;-72
2022/08/10 11:06:50;;;;;;;6.30;2.47;;;;;;;;;;5053299;28;20513;-73
2022/08/10 11:09:19;;;;;;;3.40;2.33;;;;;;;;;;5053112;28;20447;-72
2022/08/10 11:11:46;;;;;;;2.47;2.27;;;;;;;;;;5052757;28;20464;-73
2022/08/10 11:14:15;;;;;;;3.47;2.20;;;;;;;;;;5051723;28;20762;-72
2022/08/10 11:16:42;;;;;;;5.17;2.87;;;;;;;;;;5053076;28;20420;-72
2022/08/10 11:19:26;;;;;;;3.80;2.87;;;;;;;;;;5053159;28;20494;-72
2022/08/10 11:22:11;;;;;;;3.17;2.17;;;;;;;;;;5052425;28;20455;-73
2022/08/10 11:24:41;;;;;;;3.17;2.30;;;;;;;;;;5053055;28;20443;-72
2022/08/10 11:27:17;;;;;;;6.67;2.83;;;;;;;;;;5053327;28;20468;-73
2022/08/10 11:29:58;;;;;;;4.00;2.27;;;;;;;;;;5052775;28;20435;-72
2022/08/10 11:32:30;;;;;;;3.20;2.37;;;;;;;;;;5053066;28;20411;-72
2022/08/10 11:35:02;;;;;;;2.83;2.50;;;;;;;;;;5053090;28;20450;-72
2022/08/10 11:37:43;;;;;;;6.37;2.50;;;;;;;;;;5053037;28;20932;-73
2022/08/10 11:40:19;;;;;;;3.80;2.60;;;;;;;;;;5052412;28;20428;-72
2022/08/10 11:43:04;;;;;;;2.77;2.40;;;;;;;;;;5053933;28;20431;-73
2022/08/10 11:45:34;;;;;;;2.37;2.17;;;;;;;;;;5057251;28;20475;-73
2022/08/10 11:48:12;;;;;;;2.57;2.37;;;;;;;;;;5057049;28;20484;-73
2022/08/10 11:50:58;;;;;;;6.00;2.57;;;;;;;;;;5056587;28;20426;-74
2022/08/10 11:53:42;;;;;;;3.97;2.60;;;;;;;;;;5056902;28;20407;-73
2022/08/10 11:56:10;;;;;;;2.90;2.40;;;;;;;;;;5055823;28;20419;-72
2022/08/10 12:01:27;;;;;;;2.83;2.47;;;;;;;;;;5056707;28;20505;-73
2022/08/10 12:03:53;;;;;;;2.23;2.00;;;;;;;;;;5056370;28;20392;-74
2022/08/10 12:06:20;;;;;;;3.77;2.60;;;;;;;;;;5056412;28;20512;-73
2022/08/10 12:08:47;;;;;;;2.67;2.40;;;;;;;;;;5056543;28;20412;-72
2022/08/10 12:11:21;;;;;;;2.40;2.20;;;;;;;;;;5056257;28;20420;-72
2022/08/10 12:14:13;;;;;;;4.93;2.37;;;;;;;;;;5056442;28;20429;-73
2022/08/10 12:16:41;;;;;;;3.73;2.80;;;;;;;;;;5053713;28;20793;-73
2022/08/10 12:19:25;;;;;;;6.77;2.37;;;;;;;;;;5056368;28;20801;-74
2022/08/10 12:22:05;;;;;;;3.17;2.33;;;;;;;;;;5056044;28;20849;-73
2022/08/10 12:24:37;;;;;;;3.17;2.87;;;;;;;;;;5056257;28;20411;-73
2022/08/10 12:27:17;;;;;;;5.73;2.23;;;;;;;;;;5056236;28;20455;-73
2022/08/10 12:29:47;;;;;;;2.80;2.47;;;;;;;;;;5055860;28;20495;-73
2022/08/10 12:32:16;;;;;;;4.43;2.23;;;;;;;;;;5056021;28;20441;-72
2022/08/10 12:35:15;;;;;;;6.03;2.30;;;;;;;;;;5056108;28;20408;-72
2022/08/10 12:37:44;;;;;;;3.77;2.30;;;;;;;;;;5023045;28;20416;-72
2022/08/10 12:40:10;;;;;;;3.40;2.60;;;;;;;;;;5055770;28;20424;-75
2022/08/10 12:42:46;;;;;;;2.47;2.13;;;;;;;;;;5055967;28;20407;-74
2022/08/10 12:45:33;;;;;;;4.50;1.83;;;;;;;;;;5055620;28;20217;-74
2022/08/10 12:48:10;;;;;;;2.60;2.40;;;;;;;;;;5044678;28;20943;-74
2022/08/10 12:50:40;;;;;;;4.83;2.30;;;;;;;;;;5038468;28;20794;-73
2022/08/10 12:53:14;;;;;;;3.00;2.60;;;;;;;;;;5040562;28;20405;-72
2022/08/10 12:55:40;;;;;;;3.50;2.30;;;;;;;;;;5035833;28;20495;-73
2022/08/10 12:58:11;;;;;;;2.70;2.50;;;;;;;;;;5035825;28;20731;-73
2022/08/10 13:00:37;;;;;;;3.53;2.30;;;;;;;;;;5035483;28;20421;-73
2022/08/10 13:03:05;;;;;;;3.90;2.10;;;;;;;;;;5035762;28;20785;-73
2022/08/10 13:05:32;;;;;;;3.13;2.40;;;;;;;;;;5035895;28;20471;-73
2022/08/10 13:10:49;;;;;;;3.10;2.27;;;;;;;;;;5035414;28;20436;-74
2022/08/10 13:13:18;;;;;;;2.90;1.87;;;;;;;;;;5035396;28;20428;-75
2022/08/10 13:15:45;;;;;;;6.50;2.40;;;;;;;;;;5035273;28;20409;-74
2022/08/10 13:18:12;;;;;;;3.63;2.10;;;;;;;;;;5035510;28;20491;-72
2022/08/10 13:20:39;;;;;;;2.70;2.23;;;;;;;;;;5034811;28;20513;-72
2022/08/10 13:23:10;;;;;;;2.50;2.30;;;;;;;;;;5035439;28;20463;-72
2022/08/10 13:25:38;;;;;;;2.57;2.37;;;;;;;;;;5035163;28;20808;-73
2022/08/10 13:28:05;;;;;;;2.60;2.40;;;;;;;;;;5035136;28;20921;-73
2022/08/10 13:30:31;;;;;;;2.37;2.10;;;;;;;;;;5034841;28;20429;-75
2022/08/10 13:32:59;;;;;;;8.30;2.93;;;;;;;;;;5035198;28;20409;-74
2022/08/10 13:35:26;;;;;;;3.30;2.00;;;;;;;;;;5035204;28;20409;-73
2022/08/10 13:37:54;;;;;;;3.80;2.17;;;;;;;;;;5035079;28;20407;-74
2022/08/10 13:40:20;;;;;;;4.53;2.43;;;;;;;;;;5034641;28;20809;-73
2022/08/10 13:42:47;;;;;;;3.40;1.97;;;;;;;;;;5034863;28;20509;-74
2022/08/10 13:45:17;;;;;;;3.73;2.27;;;;;;;;;;5034723;28;20457;-74
2022/08/10 13:47:44;;;;;;;3.20;2.43;;;;;;;;;;5034751;28;20455;-74
2022/08/10 13:50:14;;;;;;;4.77;2.20;;;;;;;;;;5034468;28;20504;-74
2022/08/10 13:52:41;;;;;;;5.93;2.20;;;;;;;;;;5034896;28;20405;-74
2022/08/10 13:55:12;;;;;;;3.23;1.90;;;;;;;;;;5034621;28;20488;-73
2022/08/10 13:57:39;;;;;;;2.97;2.20;;;;;;;;;;5034741;28;20439;-73
2022/08/10 14:00:09;;;;;;;5.80;2.27;;;;;;;;;;5034334;28;20539;-73
2022/08/10 14:03:01;;;;;;;3.00;2.43;;;;;;;;;;5034908;28;20412;-73
2022/08/10 14:05:29;;;;;;;3.50;2.20;;;;;;;;;;5030738;28;20461;-73
2022/08/10 14:07:55;;;;;;;4.00;2.67;;;;;;;;;;5034330;28;20543;-73
2022/08/10 14:10:21;;;;;;;2.90;2.70;;;;;;;;;;5034103;28;20810;-73
2022/08/10 14:12:48;;;;;;;2.70;2.50;;;;;;;;;;5044100;28;20459;-73
2022/08/10 14:15:16;;;;;;;5.60;2.70;;;;;;;;;;5039779;28;20451;-73
2022/08/10 14:17:44;;;;;;;4.43;2.53;;;;;;;;;;5036376;28;20409;-73
2022/08/10 14:20:11;;;;;;;6.60;2.10;;;;;;;;;;5053824;28;20829;-73
2022/08/10 14:22:37;;;;;;;3.83;2.23;;;;;;;;;;5053978;28;20400;-73
2022/08/10 14:25:07;;;;;;;3.17;2.30;;;;;;;;;;5053860;28;20423;-74
2022/08/10 14:27:34;;;;;;;5.47;2.37;;;;;;;;;;5040569;28;20461;-73
2022/08/10 14:30:01;;;;;;;3.53;2.77;;;;;;;;;;5033747;28;20468;-73
2022/08/10 14:32:28;;;;;;;9.63;2.40;;;;;;;;;;5034075;28;20455;-73
2022/08/10 14:34:54;;;;;;;3.10;2.37;;;;;;;;;;5033877;28;20462;-73
2022/08/10 14:37:24;;;;;;;2.53;2.33;;;;;;;;;;5034774;28;20428;-73
2022/08/10 14:40:02;;;;;;;3.67;2.30;;;;;;;;;;5033454;28;20424;-73
2022/08/10 14:42:30;;;;;;;9.03;6.17;;;;;;;;;;5033877;28;20415;-73
2022/08/10 14:45:02;;;;;;;5.60;5.00;;;;;;;;;;5033950;28;20432;-73
2022/08/10 14:47:29;;;;;;;5.83;3.07;;;;;;;;;;5042612;28;20435;-73
2022/08/10 14:49:56;;;;;;;11.07;2.63;;;;;;;;;;5045156;28;20416;-74
2022/08/10 14:52:23;;;;;;;3.03;2.53;;;;;;;;;;5039463;28;20439;-73
2022/08/10 14:54:50;;;;;;;2.43;2.20;;;;;;;;;;5039303;28;20500;-73
2022/08/10 14:57:16;;;;;;;3.73;2.53;;;;;;;;;;5033328;28;20846;-73
2022/08/10 14:59:44;;;;;;;2.80;2.37;;;;;;;;;;5033103;28;20484;-73
2022/08/10 15:02:11;;;;;;;2.60;2.40;;;;;;;;;;5033338;28;20414;-73
2022/08/10 15:04:38;;;;;;;3.23;2.93;;;;;;;;;;5033502;28;20770;-73
2022/08/10 15:07:05;;;;;;;4.43;2.47;;;;;;;;;;5041150;28;20470;-73
2022/08/10 15:09:32;;;;;;;9.73;2.70;;;;;;;;;;5066186;28;20411;-73
2022/08/10 15:11:59;;;;;;;3.80;2.33;;;;;;;;;;5053174;28;20424;-73
2022/08/10 15:14:26;;;;;;;2.33;2.13;;;;;;;;;;5052550;28;20439;-74
2022/08/10 15:16:56;;;;;;;3.10;2.47;;;;;;;;;;5051672;28;20408;-75
2022/08/10 15:19:28;;;;;;;3.03;2.50;;;;;;;;;;5052742;28;20420;-75